Pilger, Nebraska
Current Conditions -  °F | °C
As of 6:55 AM on Wednesday 26 Nov 2014 (Local Time) from KLCG Reporting Station
Overcast Overcast  
Wind Chill: 23°   Ceiling: 1200
Heat Index: 34°   Visibility: 10mi
Dew Point: 32°   Wind: 18mph
Humidity: 91%   Direction: 310°NW
Pressure: 29.93"   Gusts: 29mph
Location:  42.01°N, 97.05°W
Report Text: KLCG 261255Z AUTO 31016G25KT 10SM OVC012 01/00 A2993 RMK AO2 T00121001
Loading
Personal Weather Stations






























Interactive Weather Map New forecast layout! Learn more

10-Day Weather Forecast

Advertisements
Track Severe Weather on mobile